sensor_id;sensor_type;location;lat;lon;timestamp;pressure;altitude;pressure_sealevel;temperature;humidity
5755;BME280;2902;42.130;24.732;2022-11-03T00:00:31;99816.97;;;18.22;40.19
5755;BME280;2902;42.130;24.732;2022-11-03T00:02:58;99815.22;;;18.27;39.93
5755;BME280;2902;42.130;24.732;2022-11-03T00:05:25;99819.88;;;18.32;39.62
5755;BME280;2902;42.130;24.732;2022-11-03T00:08:09;99820.94;;;18.31;39.69
5755;BME280;2902;42.130;24.732;2022-11-03T00:10:37;99817.69;;;18.29;39.75
5755;BME280;2902;42.130;24.732;2022-11-03T00:13:03;99822.81;;;18.42;39.47
5755;BME280;2902;42.130;24.732;2022-11-03T00:15:30;99825.00;;;18.45;39.45
5755;BME280;2902;42.130;24.732;2022-11-03T00:17:57;99819.38;;;18.46;39.31
5755;BME280;2902;42.130;24.732;2022-11-03T00:20:24;99817.53;;;18.47;39.31
5755;BME280;2902;42.130;24.732;2022-11-03T00:22:50;99812.72;;;18.49;39.70
5755;BME280;2902;42.130;24.732;2022-11-03T00:25:17;99816.00;;;18.51;39.53
5755;BME280;2902;42.130;24.732;2022-11-03T00:27:45;99824.41;;;18.54;39.38
5755;BME280;2902;42.130;24.732;2022-11-03T00:30:12;99823.47;;;18.49;39.37
5755;BME280;2902;42.130;24.732;2022-11-03T00:32:39;99823.69;;;18.59;39.31
5755;BME280;2902;42.130;24.732;2022-11-03T00:35:06;99830.69;;;18.60;38.98
5755;BME280;2902;42.130;24.732;2022-11-03T00:37:33;99833.34;;;18.71;38.68
5755;BME280;2902;42.130;24.732;2022-11-03T00:39:59;99827.84;;;18.78;38.56
5755;BME280;2902;42.130;24.732;2022-11-03T00:42:26;99828.00;;;18.88;38.32
5755;BME280;2902;42.130;24.732;2022-11-03T00:44:54;99828.00;;;18.88;38.21
5755;BME280;2902;42.130;24.732;2022-11-03T00:47:21;99826.47;;;18.92;38.16
5755;BME280;2902;42.130;24.732;2022-11-03T00:49:47;99826.25;;;18.93;38.13
5755;BME280;2902;42.130;24.732;2022-11-03T00:52:14;99830.56;;;18.94;37.86
5755;BME280;2902;42.130;24.732;2022-11-03T00:54:41;99822.91;;;19.03;37.67
5755;BME280;2902;42.130;24.732;2022-11-03T00:57:07;99813.03;;;19.08;37.46
5755;BME280;2902;42.130;24.732;2022-11-03T00:59:34;99815.47;;;19.10;37.46
5755;BME280;2902;42.130;24.732;2022-11-03T01:02:02;99810.09;;;19.10;37.63
5755;BME280;2902;42.130;24.732;2022-11-03T01:04:29;99809.78;;;19.06;37.57
5755;BME280;2902;42.130;24.732;2022-11-03T01:07:13;99809.34;;;18.98;37.80
5755;BME280;2902;42.130;24.732;2022-11-03T01:09:40;99809.34;;;18.98;37.90
5755;BME280;2902;42.130;24.732;2022-11-03T01:12:09;99810.25;;;19.03;37.87
5755;BME280;2902;42.130;24.732;2022-11-03T01:14:39;99814.63;;;18.93;37.94
5755;BME280;2902;42.130;24.732;2022-11-03T01:17:09;99808.94;;;18.89;37.99
5755;BME280;2902;42.130;24.732;2022-11-03T01:19:36;99810.78;;;18.89;37.73
5755;BME280;2902;42.130;24.732;2022-11-03T01:22:03;99812.78;;;18.93;37.82
5755;BME280;2902;42.130;24.732;2022-11-03T01:24:30;99811.63;;;19.06;37.32
5755;BME280;2902;42.130;24.732;2022-11-03T01:26:57;99810.84;;;19.05;37.69
5755;BME280;2902;42.130;24.732;2022-11-03T01:29:24;99817.34;;;18.93;37.89
5755;BME280;2902;42.130;24.732;2022-11-03T01:31:50;99816.25;;;18.94;37.96
5755;BME280;2902;42.130;24.732;2022-11-03T01:34:19;99812.03;;;18.98;37.92
5755;BME280;2902;42.130;24.732;2022-11-03T01:36:47;99809.88;;;18.83;38.13
5755;BME280;2902;42.130;24.732;2022-11-03T01:39:15;99816.56;;;18.81;38.44
5755;BME280;2902;42.130;24.732;2022-11-03T01:41:45;99820.38;;;18.96;38.20
5755;BME280;2902;42.130;24.732;2022-11-03T01:44:27;99818.47;;;18.97;37.87
5755;BME280;2902;42.130;24.732;2022-11-03T01:47:00;99823.78;;;19.08;37.72
5755;BME280;2902;42.130;24.732;2022-11-03T01:49:32;99819.81;;;19.11;37.35
5755;BME280;2902;42.130;24.732;2022-11-03T01:52:06;99826.16;;;19.05;37.40
5755;BME280;2902;42.130;24.732;2022-11-03T01:54:35;99826.94;;;18.89;37.47
5755;BME280;2902;42.130;24.732;2022-11-03T01:57:05;99826.41;;;18.75;37.93
5755;BME280;2902;42.130;24.732;2022-11-03T01:59:36;99822.00;;;18.69;38.35
5755;BME280;2902;42.130;24.732;2022-11-03T02:02:03;99818.88;;;18.61;38.25
5755;BME280;2902;42.130;24.732;2022-11-03T02:04:32;99826.84;;;18.56;38.28
5755;BME280;2902;42.130;24.732;2022-11-03T02:07:07;99822.06;;;18.58;38.26
5755;BME280;2902;42.130;24.732;2022-11-03T02:09:36;99822.16;;;18.63;38.43
5755;BME280;2902;42.130;24.732;2022-11-03T02:12:04;99824.84;;;18.63;38.43
5755;BME280;2902;42.130;24.732;2022-11-03T02:14:36;99808.50;;;18.53;38.53
5755;BME280;2902;42.130;24.732;2022-11-03T02:17:06;99823.69;;;18.59;38.33
5755;BME280;2902;42.130;24.732;2022-11-03T02:19:39;99824.00;;;18.62;38.25
5755;BME280;2902;42.130;24.732;2022-11-03T02:22:23;99823.31;;;18.67;38.16
5755;BME280;2902;42.130;24.732;2022-11-03T02:24:58;99814.84;;;18.75;37.93
5755;BME280;2902;42.130;24.732;2022-11-03T02:27:29;99824.59;;;18.64;38.10
5755;BME280;2902;42.130;24.732;2022-11-03T02:29:56;99824.84;;;18.63;38.63
5755;BME280;2902;42.130;24.732;2022-11-03T02:32:24;99821.69;;;18.66;38.17
5755;BME280;2902;42.130;24.732;2022-11-03T02:35:01;99816.69;;;18.58;38.17
5755;BME280;2902;42.130;24.732;2022-11-03T02:37:33;99824.75;;;18.58;38.05
5755;BME280;2902;42.130;24.732;2022-11-03T02:40:04;99831.75;;;18.59;38.13
5755;BME280;2902;42.130;24.732;2022-11-03T02:42:35;99830.13;;;18.58;38.09
5755;BME280;2902;42.130;24.732;2022-11-03T02:45:06;99830.00;;;18.53;38.19
5755;BME280;2902;42.130;24.732;2022-11-03T02:47:36;99832.69;;;18.64;37.53
5755;BME280;2902;42.130;24.732;2022-11-03T02:50:05;99835.13;;;18.66;37.58
5755;BME280;2902;42.130;24.732;2022-11-03T02:52:36;99831.72;;;18.70;37.40
5755;BME280;2902;42.130;24.732;2022-11-03T02:55:09;99830.75;;;18.76;37.28
5755;BME280;2902;42.130;24.732;2022-11-03T02:57:44;99828.50;;;18.85;36.96
5755;BME280;2902;42.130;24.732;2022-11-03T03:00:14;99841.56;;;18.93;37.03
5755;BME280;2902;42.130;24.732;2022-11-03T03:02:51;99834.69;;;18.85;37.10
5755;BME280;2902;42.130;24.732;2022-11-03T03:05:23;99837.94;;;18.87;37.09
5755;BME280;2902;42.130;24.732;2022-11-03T03:07:54;99824.25;;;18.89;36.95
5755;BME280;2902;42.130;24.732;2022-11-03T03:10:24;99829.63;;;18.89;36.96
5755;BME280;2902;42.130;24.732;2022-11-03T03:12:55;99827.34;;;18.81;37.20
5755;BME280;2902;42.130;24.732;2022-11-03T03:15:27;99830.25;;;18.79;37.47
5755;BME280;2902;42.130;24.732;2022-11-03T03:18:04;99839.16;;;18.80;37.25
5755;BME280;2902;42.130;24.732;2022-11-03T03:20:40;99828.31;;;18.75;37.33
5755;BME280;2902;42.130;24.732;2022-11-03T03:23:12;99838.97;;;18.70;37.45
5755;BME280;2902;42.130;24.732;2022-11-03T03:25:44;99837.44;;;18.74;37.21
5755;BME280;2902;42.130;24.732;2022-11-03T03:28:19;99838.25;;;18.74;37.21
5755;BME280;2902;42.130;24.732;2022-11-03T03:30:48;99836.38;;;18.75;37.31
5755;BME280;2902;42.130;24.732;2022-11-03T03:33:17;99842.25;;;18.72;37.39
5755;BME280;2902;42.130;24.732;2022-11-03T03:35:47;99846.56;;;18.73;37.31
5755;BME280;2902;42.130;24.732;2022-11-03T03:38:17;99841.31;;;18.66;37.51
5755;BME280;2902;42.130;24.732;2022-11-03T03:40:49;99843.22;;;18.66;37.44
5755;BME280;2902;42.130;24.732;2022-11-03T03:43:19;99841.31;;;18.66;37.44
5755;BME280;2902;42.130;24.732;2022-11-03T03:45:51;99840.53;;;18.66;37.35
5755;BME280;2902;42.130;24.732;2022-11-03T03:48:18;99835.78;;;18.73;37.37
5755;BME280;2902;42.130;24.732;2022-11-03T03:50:46;99844.47;;;18.75;37.26
5755;BME280;2902;42.130;24.732;2022-11-03T03:53:15;99842.53;;;18.87;36.89
5755;BME280;2902;42.130;24.732;2022-11-03T03:55:46;99838.69;;;18.83;36.98
5755;BME280;2902;42.130;24.732;2022-11-03T03:58:14;99829.47;;;18.79;36.84
5755;BME280;2902;42.130;24.732;2022-11-03T04:00:43;99833.78;;;18.80;36.99
5755;BME280;2902;42.130;24.732;2022-11-03T04:03:14;99838.94;;;18.81;36.91
5755;BME280;2902;42.130;24.732;2022-11-03T04:05:42;99844.16;;;18.88;36.86
5755;BME280;2902;42.130;24.732;2022-11-03T04:08:09;99841.25;;;18.89;36.82
5755;BME280;2902;42.130;24.732;2022-11-03T04:10:36;99845.31;;;18.92;36.80
5755;BME280;2902;42.130;24.732;2022-11-03T04:13:03;99841.72;;;18.86;36.97
5755;BME280;2902;42.130;24.732;2022-11-03T04:15:48;99846.47;;;18.96;36.66
5755;BME280;2902;42.130;24.732;2022-11-03T04:18:33;99848.94;;;18.97;36.73
5755;BME280;2902;42.130;24.732;2022-11-03T04:21:26;99857.72;;;18.93;36.76
5755;BME280;2902;42.130;24.732;2022-11-03T04:24:10;99845.72;;;18.84;36.77
5755;BME280;2902;42.130;24.732;2022-11-03T04:26:37;99851.00;;;18.79;36.94
5755;BME280;2902;42.130;24.732;2022-11-03T04:29:05;99847.63;;;18.72;36.99
5755;BME280;2902;42.130;24.732;2022-11-03T04:31:34;99845.63;;;18.79;36.88
5755;BME280;2902;42.130;24.732;2022-11-03T04:34:03;99841.47;;;18.88;36.78
5755;BME280;2902;42.130;24.732;2022-11-03T04:36:30;99844.84;;;18.95;36.61
5755;BME280;2902;42.130;24.732;2022-11-03T04:38:56;99848.53;;;19.05;36.49
5755;BME280;2902;42.130;24.732;2022-11-03T04:41:26;99852.94;;;19.11;36.39
5755;BME280;2902;42.130;24.732;2022-11-03T04:43:54;99848.47;;;19.17;36.20
5755;BME280;2902;42.130;24.732;2022-11-03T04:46:24;99855.88;;;19.10;36.33
5755;BME280;2902;42.130;24.732;2022-11-03T04:48:53;99860.69;;;19.08;36.71
5755;BME280;2902;42.130;24.732;2022-11-03T04:51:22;99851.38;;;18.99;36.74
5755;BME280;2902;42.130;24.732;2022-11-03T04:53:52;99857.25;;;18.96;36.89
5755;BME280;2902;42.130;24.732;2022-11-03T04:56:22;99855.22;;;18.75;37.39
5755;BME280;2902;42.130;24.732;2022-11-03T04:58:51;99853.09;;;18.77;37.30
5755;BME280;2902;42.130;24.732;2022-11-03T05:01:19;99860.31;;;18.88;37.48
5755;BME280;2902;42.130;24.732;2022-11-03T05:03:48;99860.16;;;18.94;37.05
5755;BME280;2902;42.130;24.732;2022-11-03T05:06:18;99865.88;;;18.98;37.66
5755;BME280;2902;42.130;24.732;2022-11-03T05:08:47;99871.56;;;19.13;36.73
5755;BME280;2902;42.130;24.732;2022-11-03T05:11:19;99867.91;;;19.19;36.51
5755;BME280;2902;42.130;24.732;2022-11-03T05:13:47;99863.00;;;19.16;37.05
5755;BME280;2902;42.130;24.732;2022-11-03T05:16:15;99867.47;;;19.10;36.99
5755;BME280;2902;42.130;24.732;2022-11-03T05:18:45;99871.31;;;19.14;37.18
5755;BME280;2902;42.130;24.732;2022-11-03T05:21:15;99874.06;;;19.31;37.88
5755;BME280;2902;42.130;24.732;2022-11-03T05:23:47;99878.09;;;19.45;36.99
5755;BME280;2902;42.130;24.732;2022-11-03T05:26:17;99886.66;;;19.42;36.52
5755;BME280;2902;42.130;24.732;2022-11-03T05:28:47;99884.28;;;19.45;37.35
5755;BME280;2902;42.130;24.732;2022-11-03T05:31:21;99881.50;;;19.40;36.48
5755;BME280;2902;42.130;24.732;2022-11-03T05:33:50;99883.00;;;19.48;37.45
5755;BME280;2902;42.130;24.732;2022-11-03T05:36:19;99894.69;;;19.70;35.96
5755;BME280;2902;42.130;24.732;2022-11-03T05:38:49;99899.81;;;19.88;36.26
5755;BME280;2902;42.130;24.732;2022-11-03T05:41:20;99892.97;;;19.97;36.42
5755;BME280;2902;42.130;24.732;2022-11-03T05:43:58;99895.13;;;20.00;35.53
5755;BME280;2902;42.130;24.732;2022-11-03T05:46:29;99904.97;;;20.06;35.72
5755;BME280;2902;42.130;24.732;2022-11-03T05:49:00;99902.50;;;20.21;38.39
5755;BME280;2902;42.130;24.732;2022-11-03T05:51:32;99912.38;;;20.32;35.43
5755;BME280;2902;42.130;24.732;2022-11-03T05:54:02;99915.78;;;20.44;34.85
5755;BME280;2902;42.130;24.732;2022-11-03T05:56:31;99926.69;;;20.54;34.78
5755;BME280;2902;42.130;24.732;2022-11-03T05:58:59;99934.13;;;20.42;34.95
5755;BME280;2902;42.130;24.732;2022-11-03T06:01:29;99925.44;;;20.40;35.11
5755;BME280;2902;42.130;24.732;2022-11-03T06:03:57;99930.09;;;20.66;34.59
5755;BME280;2902;42.130;24.732;2022-11-03T06:06:27;99941.28;;;20.91;35.06
5755;BME280;2902;42.130;24.732;2022-11-03T06:08:55;99937.84;;;21.22;34.21
5755;BME280;2902;42.130;24.732;2022-11-03T06:11:27;99942.88;;;21.67;37.57
5755;BME280;2902;42.130;24.732;2022-11-03T06:13:57;99947.28;;;22.04;33.01
5755;BME280;2902;42.130;24.732;2022-11-03T06:16:35;99952.81;;;22.19;33.06
5755;BME280;2902;42.130;24.732;2022-11-03T06:19:14;99946.44;;;22.40;35.12
5755;BME280;2902;42.130;24.732;2022-11-03T06:21:44;99950.16;;;22.66;34.90
5755;BME280;2902;42.130;24.732;2022-11-03T06:24:13;99964.66;;;22.96;35.24
5755;BME280;2902;42.130;24.732;2022-11-03T06:26:42;99974.28;;;23.39;31.40
5755;BME280;2902;42.130;24.732;2022-11-03T06:29:13;99980.59;;;23.64;30.28
5755;BME280;2902;42.130;24.732;2022-11-03T06:31:42;99985.53;;;23.82;30.45
5755;BME280;2902;42.130;24.732;2022-11-03T06:34:39;99992.63;;;24.03;31.46
5755;BME280;2902;42.130;24.732;2022-11-03T06:37:15;100006.97;;;24.29;29.29
5755;BME280;2902;42.130;24.732;2022-11-03T06:39:44;100005.09;;;24.29;29.93
5755;BME280;2902;42.130;24.732;2022-11-03T06:42:14;100002.59;;;24.58;30.41
5755;BME280;2902;42.130;24.732;2022-11-03T06:44:43;100009.09;;;24.92;30.36
5755;BME280;2902;42.130;24.732;2022-11-03T06:47:19;100015.22;;;25.28;29.10
5755;BME280;2902;42.130;24.732;2022-11-03T06:49:48;100013.44;;;25.57;28.13
5755;BME280;2902;42.130;24.732;2022-11-03T06:52:24;100018.81;;;25.67;29.59
5755;BME280;2902;42.130;24.732;2022-11-03T06:54:54;100020.94;;;25.80;27.38
5755;BME280;2902;42.130;24.732;2022-11-03T06:57:26;100019.72;;;26.01;28.22
5755;BME280;2902;42.130;24.732;2022-11-03T06:59:55;100030.59;;;25.57;27.98
5755;BME280;2902;42.130;24.732;2022-11-03T07:02:42;100026.53;;;25.55;29.34
5755;BME280;2902;42.130;24.732;2022-11-03T07:05:21;100033.16;;;25.24;28.58
5755;BME280;2902;42.130;24.732;2022-11-03T07:07:48;100038.19;;;25.55;29.10
5755;BME280;2902;42.130;24.732;2022-11-03T07:10:15;100038.84;;;25.86;29.11
5755;BME280;2902;42.130;24.732;2022-11-03T07:12:44;100028.84;;;26.15;29.33
5755;BME280;2902;42.130;24.732;2022-11-03T07:15:19;100040.13;;;26.37;28.46
5755;BME280;2902;42.130;24.732;2022-11-03T07:17:48;100055.88;;;26.40;28.07
5755;BME280;2902;42.130;24.732;2022-11-03T07:20:16;100043.31;;;26.44;27.39
5755;BME280;2902;42.130;24.732;2022-11-03T07:22:43;100052.81;;;26.51;28.75
5755;BME280;2902;42.130;24.732;2022-11-03T07:25:15;100043.22;;;26.59;27.68
5755;BME280;2902;42.130;24.732;2022-11-03T07:27:45;100044.25;;;25.91;28.76
5755;BME280;2902;42.130;24.732;2022-11-03T07:30:18;100021.69;;;26.24;29.63
5755;BME280;2902;42.130;24.732;2022-11-03T07:32:45;100048.41;;;26.22;27.43
5755;BME280;2902;42.130;24.732;2022-11-03T07:35:31;100053.31;;;26.25;28.51
5755;BME280;2902;42.130;24.732;2022-11-03T07:38:01;100045.13;;;26.53;29.21
5755;BME280;2902;42.130;24.732;2022-11-03T07:40:31;100060.28;;;26.69;28.85
5755;BME280;2902;42.130;24.732;2022-11-03T07:43:10;100056.16;;;26.43;26.45
5755;BME280;2902;42.130;24.732;2022-11-03T07:45:38;100045.78;;;26.07;27.57
5755;BME280;2902;42.130;24.732;2022-11-03T07:48:24;100050.56;;;25.86;26.93
5755;BME280;2902;42.130;24.732;2022-11-03T07:50:53;100034.03;;;25.73;28.59
5755;BME280;2902;42.130;24.732;2022-11-03T07:53:24;100043.34;;;25.62;27.80
5755;BME280;2902;42.130;24.732;2022-11-03T07:55:55;100043.94;;;25.49;29.44
5755;BME280;2902;42.130;24.732;2022-11-03T07:58:32;100042.59;;;26.00;28.03
5755;BME280;2902;42.130;24.732;2022-11-03T08:01:00;100024.97;;;26.26;27.43
5755;BME280;2902;42.130;24.732;2022-11-03T08:03:39;100036.00;;;26.39;26.80
5755;BME280;2902;42.130;24.732;2022-11-03T08:06:07;100032.06;;;26.22;28.30
5755;BME280;2902;42.130;24.732;2022-11-03T08:08:34;100026.25;;;26.33;27.48
5755;BME280;2902;42.130;24.732;2022-11-03T08:11:01;100025.25;;;26.24;27.63
5755;BME280;2902;42.130;24.732;2022-11-03T08:13:30;100036.09;;;25.96;28.79
5755;BME280;2902;42.130;24.732;2022-11-03T08:15:56;100018.81;;;25.67;28.31
5755;BME280;2902;42.130;24.732;2022-11-03T08:18:23;100034.94;;;26.02;29.03
5755;BME280;2902;42.130;24.732;2022-11-03T08:20:50;100023.81;;;25.50;28.74
5755;BME280;2902;42.130;24.732;2022-11-03T08:23:17;100009.25;;;25.16;29.34
5755;BME280;2902;42.130;24.732;2022-11-03T08:25:44;100024.19;;;25.33;30.15
5755;BME280;2902;42.130;24.732;2022-11-03T08:28:11;100028.78;;;25.86;28.13
5755;BME280;2902;42.130;24.732;2022-11-03T08:30:39;100027.34;;;26.32;29.07
5755;BME280;2902;42.130;24.732;2022-11-03T08:33:05;100022.34;;;26.73;28.11
5755;BME280;2902;42.130;24.732;2022-11-03T08:35:32;100033.38;;;26.86;27.05
5755;BME280;2902;42.130;24.732;2022-11-03T08:37:59;100030.72;;;27.05;27.70
5755;BME280;2902;42.130;24.732;2022-11-03T08:40:26;100031.19;;;27.35;27.71
5755;BME280;2902;42.130;24.732;2022-11-03T08:42:52;100034.72;;;27.12;26.50
5755;BME280;2902;42.130;24.732;2022-11-03T08:45:19;100035.41;;;27.28;26.35
5755;BME280;2902;42.130;24.732;2022-11-03T08:47:47;100027.00;;;27.43;27.53
5755;BME280;2902;42.130;24.732;2022-11-03T08:50:14;100029.72;;;27.43;27.03
5755;BME280;2902;42.130;24.732;2022-11-03T08:52:41;100022.81;;;27.69;28.12
5755;BME280;2902;42.130;24.732;2022-11-03T08:55:08;100032.78;;;27.60;26.71
5755;BME280;2902;42.130;24.732;2022-11-03T08:57:35;100030.63;;;27.57;25.47
5755;BME280;2902;42.130;24.732;2022-11-03T09:00:02;100021.34;;;27.58;26.11
5755;BME280;2902;42.130;24.732;2022-11-03T09:02:30;100024.97;;;27.72;25.96
5755;BME280;2902;42.130;24.732;2022-11-03T09:04:58;100023.50;;;27.79;26.22
5755;BME280;2902;42.130;24.732;2022-11-03T09:07:25;100013.22;;;27.71;25.96
5755;BME280;2902;42.130;24.732;2022-11-03T09:09:52;100028.31;;;27.87;25.58
5755;BME280;2902;42.130;24.732;2022-11-03T09:12:19;100026.69;;;27.86;26.45
5755;BME280;2902;42.130;24.732;2022-11-03T09:14:45;100022.25;;;27.30;25.97
5755;BME280;2902;42.130;24.732;2022-11-03T09:17:12;100021.06;;;26.65;27.46
5755;BME280;2902;42.130;24.732;2022-11-03T09:19:39;100014.72;;;26.98;27.25
5755;BME280;2902;42.130;24.732;2022-11-03T09:22:07;100018.19;;;27.27;27.02
5755;BME280;2902;42.130;24.732;2022-11-03T09:24:33;100012.75;;;27.27;25.90
5755;BME280;2902;42.130;24.732;2022-11-03T09:27:00;99999.28;;;26.89;26.45
5755;BME280;2902;42.130;24.732;2022-11-03T09:29:27;99998.06;;;27.00;29.61
5755;BME280;2902;42.130;24.732;2022-11-03T09:31:54;99997.19;;;27.04;29.00
5755;BME280;2902;42.130;24.732;2022-11-03T09:34:20;99995.91;;;26.45;27.55
5755;BME280;2902;42.130;24.732;2022-11-03T09:36:47;99987.19;;;26.71;29.73
5755;BME280;2902;42.130;24.732;2022-11-03T09:39:15;99985.00;;;26.97;28.39
5755;BME280;2902;42.130;24.732;2022-11-03T09:41:42;99988.75;;;27.01;26.64
5755;BME280;2902;42.130;24.732;2022-11-03T09:44:10;99990.50;;;26.92;27.34
5755;BME280;2902;42.130;24.732;2022-11-03T09:46:37;99988.84;;;26.96;27.08
5755;BME280;2902;42.130;24.732;2022-11-03T09:49:04;99985.25;;;27.00;27.84
5755;BME280;2902;42.130;24.732;2022-11-03T09:51:31;99987.09;;;27.05;26.42
5755;BME280;2902;42.130;24.732;2022-11-03T09:54:02;99986.97;;;26.68;27.14
5755;BME280;2902;42.130;24.732;2022-11-03T09:56:34;99970.84;;;26.95;27.78
5755;BME280;2902;42.130;24.732;2022-11-03T09:59:09;99972.47;;;26.96;28.19
5755;BME280;2902;42.130;24.732;2022-11-03T10:01:38;99974.78;;;26.84;26.73
5755;BME280;2902;42.130;24.732;2022-11-03T10:04:08;99970.25;;;26.98;27.97
5755;BME280;2902;42.130;24.732;2022-11-03T10:06:36;99975.06;;;27.29;28.85
5755;BME280;2902;42.130;24.732;2022-11-03T10:09:03;99964.16;;;27.06;26.95
5755;BME280;2902;42.130;24.732;2022-11-03T10:11:34;99961.34;;;26.92;27.04
5755;BME280;2902;42.130;24.732;2022-11-03T10:14:03;99958.31;;;26.70;27.36
5755;BME280;2902;42.130;24.732;2022-11-03T10:16:31;99954.56;;;26.90;27.43
5755;BME280;2902;42.130;24.732;2022-11-03T10:18:58;99947.06;;;26.77;27.78
5755;BME280;2902;42.130;24.732;2022-11-03T10:21:27;99943.44;;;27.05;29.77
5755;BME280;2902;42.130;24.732;2022-11-03T10:23:55;99949.41;;;27.30;29.13
5755;BME280;2902;42.130;24.732;2022-11-03T10:26:21;99944.44;;;27.32;27.63
5755;BME280;2902;42.130;24.732;2022-11-03T10:28:58;99931.38;;;27.11;26.86
5755;BME280;2902;42.130;24.732;2022-11-03T10:31:32;99934.66;;;27.31;29.05
5755;BME280;2902;42.130;24.732;2022-11-03T10:33:59;99927.94;;;27.42;26.93
5755;BME280;2902;42.130;24.732;2022-11-03T10:36:27;99933.44;;;27.19;29.18
5755;BME280;2902;42.130;24.732;2022-11-03T10:38:55;99928.97;;;26.86;27.70
5755;BME280;2902;42.130;24.732;2022-11-03T10:41:23;99924.09;;;26.83;28.13
5755;BME280;2902;42.130;24.732;2022-11-03T10:44:03;99915.53;;;26.71;27.97
5755;BME280;2902;42.130;24.732;2022-11-03T10:46:32;99918.44;;;26.51;27.54
5755;BME280;2902;42.130;24.732;2022-11-03T10:49:04;99899.16;;;26.71;29.23
5755;BME280;2902;42.130;24.732;2022-11-03T10:51:33;99896.25;;;26.86;27.57
5755;BME280;2902;42.130;24.732;2022-11-03T10:54:00;99900.47;;;26.50;28.21
5755;BME280;2902;42.130;24.732;2022-11-03T10:56:28;99898.19;;;26.57;28.65
5755;BME280;2902;42.130;24.732;2022-11-03T10:58:56;99897.41;;;26.80;29.27
5755;BME280;2902;42.130;24.732;2022-11-03T11:01:24;99892.84;;;26.94;28.43
5755;BME280;2902;42.130;24.732;2022-11-03T11:03:51;99887.34;;;26.99;28.40
5755;BME280;2902;42.130;24.732;2022-11-03T11:06:19;99876.47;;;26.94;28.22
5755;BME280;2902;42.130;24.732;2022-11-03T11:08:47;99889.41;;;26.88;27.43
5755;BME280;2902;42.130;24.732;2022-11-03T11:11:15;99877.53;;;26.98;27.89
5755;BME280;2902;42.130;24.732;2022-11-03T11:13:42;99870.25;;;26.93;29.46
5755;BME280;2902;42.130;24.732;2022-11-03T11:19:10;99861.63;;;27.05;28.23
5755;BME280;2902;42.130;24.732;2022-11-03T11:22:12;99858.81;;;27.10;27.28
5755;BME280;2902;42.130;24.732;2022-11-03T11:24:59;99858.97;;;27.00;28.34
5755;BME280;2902;42.130;24.732;2022-11-03T11:34:38;99840.31;;;27.07;29.68
5755;BME280;2902;42.130;24.732;2022-11-03T11:37:31;99841.66;;;27.09;29.51
5755;BME280;2902;42.130;24.732;2022-11-03T11:39:58;99836.59;;;27.16;27.62
5755;BME280;2902;42.130;24.732;2022-11-03T11:42:25;99830.56;;;27.19;28.56
5755;BME280;2902;42.130;24.732;2022-11-03T11:45:00;99831.94;;;27.22;28.17
5755;BME280;2902;42.130;24.732;2022-11-03T11:47:33;99825.78;;;27.30;28.55
5755;BME280;2902;42.130;24.732;2022-11-03T11:50:21;99831.31;;;26.88;27.35
5755;BME280;2902;42.130;24.732;2022-11-03T11:52:52;99817.22;;;26.81;28.12
5755;BME280;2902;42.130;24.732;2022-11-03T11:55:26;99813.53;;;26.72;28.86
5755;BME280;2902;42.130;24.732;2022-11-03T11:57:54;99826.59;;;26.75;28.43
5755;BME280;2902;42.130;24.732;2022-11-03T12:00:22;99790.38;;;26.51;28.30
5755;BME280;2902;42.130;24.732;2022-11-03T12:02:51;99813.69;;;26.62;29.12
5755;BME280;2902;42.130;24.732;2022-11-03T12:05:20;99800.00;;;26.43;28.58
5755;BME280;2902;42.130;24.732;2022-11-03T12:07:49;99800.69;;;26.54;29.10
5755;BME280;2902;42.130;24.732;2022-11-03T12:10:17;99795.13;;;26.40;28.15
5755;BME280;2902;42.130;24.732;2022-11-03T12:12:45;99797.97;;;26.07;28.72
5755;BME280;2902;42.130;24.732;2022-11-03T12:15:52;99790.28;;;25.85;30.03
5755;BME280;2902;42.130;24.732;2022-11-03T12:18:30;99788.88;;;25.93;30.47
5755;BME280;2902;42.130;24.732;2022-11-03T12:20:57;99785.28;;;25.97;30.04
5755;BME280;2902;42.130;24.732;2022-11-03T12:23:37;99781.13;;;26.05;28.87
5755;BME280;2902;42.130;24.732;2022-11-03T12:26:04;99778.31;;;25.86;28.76
5755;BME280;2902;42.130;24.732;2022-11-03T12:28:32;99780.06;;;25.77;29.18
5755;BME280;2902;42.130;24.732;2022-11-03T12:30:59;99783.69;;;25.68;29.25
5755;BME280;2902;42.130;24.732;2022-11-03T12:33:26;99781.00;;;25.63;30.64
5755;BME280;2902;42.130;24.732;2022-11-03T12:35:53;99781.19;;;25.71;30.33
5755;BME280;2902;42.130;24.732;2022-11-03T12:38:20;99770.53;;;25.75;30.01
5755;BME280;2902;42.130;24.732;2022-11-03T12:40:48;99768.41;;;25.72;30.02
5755;BME280;2902;42.130;24.732;2022-11-03T12:43:14;99771.00;;;25.82;30.93
5755;BME280;2902;42.130;24.732;2022-11-03T12:45:41;99764.41;;;25.88;29.53
5755;BME280;2902;42.130;24.732;2022-11-03T12:48:08;99762.22;;;25.90;29.21
5755;BME280;2902;42.130;24.732;2022-11-03T12:50:35;99767.16;;;25.88;30.48
5755;BME280;2902;42.130;24.732;2022-11-03T12:53:04;99766.25;;;25.92;29.77
5755;BME280;2902;42.130;24.732;2022-11-03T12:55:32;99764.44;;;25.83;29.96
5755;BME280;2902;42.130;24.732;2022-11-03T12:58:00;99761.38;;;25.66;29.45
5755;BME280;2902;42.130;24.732;2022-11-03T13:00:28;99763.03;;;25.62;30.37
5755;BME280;2902;42.130;24.732;2022-11-03T13:02:55;99754.94;;;25.57;29.62
5755;BME280;2902;42.130;24.732;2022-11-03T13:05:21;99751.78;;;25.45;31.02
5755;BME280;2902;42.130;24.732;2022-11-03T13:07:49;99755.91;;;25.42;29.89
5755;BME280;2902;42.130;24.732;2022-11-03T13:10:16;99752.41;;;25.37;30.35
5755;BME280;2902;42.130;24.732;2022-11-03T13:12:42;99746.19;;;25.31;29.91
5755;BME280;2902;42.130;24.732;2022-11-03T13:15:11;99751.41;;;25.23;30.56
5755;BME280;2902;42.130;24.732;2022-11-03T13:17:40;99751.75;;;25.16;30.58
5755;BME280;2902;42.130;24.732;2022-11-03T13:20:08;99743.31;;;25.18;30.79
5755;BME280;2902;42.130;24.732;2022-11-03T13:22:35;99753.38;;;25.17;31.40
5755;BME280;2902;42.130;24.732;2022-11-03T13:25:04;99746.63;;;25.10;30.78
5755;BME280;2902;42.130;24.732;2022-11-03T13:27:31;99751.59;;;25.02;31.22
5755;BME280;2902;42.130;24.732;2022-11-03T13:29:57;99744.44;;;25.12;32.42
5755;BME280;2902;42.130;24.732;2022-11-03T13:32:25;99747.16;;;25.12;31.59